sensor_id;sensor_type;location;lat;lon;timestamp;P1;P2;P0
44045;PMS7003;29709;52.396;16.796;2023-02-12T00:02:25;5;4;2
44045;PMS7003;29709;52.396;16.796;2023-02-12T00:05:29;7;7;5
44045;PMS7003;29709;52.396;16.796;2023-02-12T00:08:33;6;5;3
44045;PMS7003;29709;52.396;16.796;2023-02-12T00:11:38;4;3;2
44045;PMS7003;29709;52.396;16.796;2023-02-12T00:14:48;6;5;3
44045;PMS7003;29709;52.396;16.796;2023-02-12T00:17:58;4;4;2
44045;PMS7003;29709;52.396;16.796;2023-02-12T00:21:37;2;2;1
44045;PMS7003;29709;52.396;16.796;2023-02-12T00:24:45;5;5;3
44045;PMS7003;29709;52.396;16.796;2023-02-12T00:27:55;6;5;2
44045;PMS7003;29709;52.396;16.796;2023-02-12T00:31:06;0;0;0
44045;PMS7003;29709;52.396;16.796;2023-02-12T00:34:11;6;5;2
44045;PMS7003;29709;52.396;16.796;2023-02-12T00:37:14;5;3;2
44045;PMS7003;29709;52.396;16.796;2023-02-12T00:40:17;4;4;3
44045;PMS7003;29709;52.396;16.796;2023-02-12T00:43:49;4;3;2
44045;PMS7003;29709;52.396;16.796;2023-02-12T00:46:52;5;4;2
44045;PMS7003;29709;52.396;16.796;2023-02-12T00:49:56;4;3;1
44045;PMS7003;29709;52.396;16.796;2023-02-12T00:53:01;5;4;2
44045;PMS7003;29709;52.396;16.796;2023-02-12T00:56:06;3;3;2
44045;PMS7003;29709;52.396;16.796;2023-02-12T00:59:11;7;4;3
44045;PMS7003;29709;52.396;16.796;2023-02-12T01:02:16;7;4;3
44045;PMS7003;29709;52.396;16.796;2023-02-12T01:05:21;4;3;2
44045;PMS7003;29709;52.396;16.796;2023-02-12T01:08:54;7;6;4
44045;PMS7003;29709;52.396;16.796;2023-02-12T01:11:58;5;4;2
44045;PMS7003;29709;52.396;16.796;2023-02-12T01:15:02;4;4;3
44045;PMS7003;29709;52.396;16.796;2023-02-12T01:18:06;6;3;2
44045;PMS7003;29709;52.396;16.796;2023-02-12T01:21:15;6;5;4
44045;PMS7003;29709;52.396;16.796;2023-02-12T01:24:24;4;4;4
44045;PMS7003;29709;52.396;16.796;2023-02-12T01:27:27;6;4;3
44045;PMS7003;29709;52.396;16.796;2023-02-12T01:30:30;5;4;3
44045;PMS7003;29709;52.396;16.796;2023-02-12T01:34:00;14;11;8
44045;PMS7003;29709;52.396;16.796;2023-02-12T01:37:04;9;8;6
44045;PMS7003;29709;52.396;16.796;2023-02-12T01:40:08;8;6;4
44045;PMS7003;29709;52.396;16.796;2023-02-12T01:43:17;7;4;3
44045;PMS7003;29709;52.396;16.796;2023-02-12T01:46:20;6;6;4
44045;PMS7003;29709;52.396;16.796;2023-02-12T01:49:27;3;1;0
44045;PMS7003;29709;52.396;16.796;2023-02-12T01:52:40;5;3;3
44045;PMS7003;29709;52.396;16.796;2023-02-12T01:56:13;5;3;2
44045;PMS7003;29709;52.396;16.796;2023-02-12T01:59:17;6;6;4
44045;PMS7003;29709;52.396;16.796;2023-02-12T02:02:22;8;6;5
44045;PMS7003;29709;52.396;16.796;2023-02-12T02:05:29;5;5;2
44045;PMS7003;29709;52.396;16.796;2023-02-12T02:08:38;5;4;3
44045;PMS7003;29709;52.396;16.796;2023-02-12T02:11:43;6;4;3
44045;PMS7003;29709;52.396;16.796;2023-02-12T02:14:58;5;3;2
44045;PMS7003;29709;52.396;16.796;2023-02-12T02:18:34;4;2;2
44045;PMS7003;29709;52.396;16.796;2023-02-12T02:31:58;7;7;4
44045;PMS7003;29709;52.396;16.796;2023-02-12T02:35:10;4;3;2
44045;PMS7003;29709;52.396;16.796;2023-02-12T02:45:18;5;4;3
44045;PMS7003;29709;52.396;16.796;2023-02-12T02:51:40;7;5;3
44045;PMS7003;29709;52.396;16.796;2023-02-12T02:54:48;6;5;3
44045;PMS7003;29709;52.396;16.796;2023-02-12T02:57:56;9;6;4
44045;PMS7003;29709;52.396;16.796;2023-02-12T03:01:05;9;8;4
44045;PMS7003;29709;52.396;16.796;2023-02-12T03:04:19;4;3;2
44045;PMS7003;29709;52.396;16.796;2023-02-12T03:07:33;3;2;2
44045;PMS7003;29709;52.396;16.796;2023-02-12T03:10:43;2;2;1
44045;PMS7003;29709;52.396;16.796;2023-02-12T03:13:55;4;2;2
44045;PMS7003;29709;52.396;16.796;2023-02-12T03:17:04;2;2;2
44045;PMS7003;29709;52.396;16.796;2023-02-12T03:20:16;3;2;2
44045;PMS7003;29709;52.396;16.796;2023-02-12T03:23:26;2;1;0
44045;PMS7003;29709;52.396;16.796;2023-02-12T03:26:39;4;2;1
44045;PMS7003;29709;52.396;16.796;2023-02-12T03:29:47;2;1;0
44045;PMS7003;29709;52.396;16.796;2023-02-12T03:33:21;5;2;1
44045;PMS7003;29709;52.396;16.796;2023-02-12T03:43:08;1;1;0
44045;PMS7003;29709;52.396;16.796;2023-02-12T03:46:19;1;1;1
44045;PMS7003;29709;52.396;16.796;2023-02-12T03:49:33;1;1;0
44045;PMS7003;29709;52.396;16.796;2023-02-12T03:52:44;2;2;1
44045;PMS7003;29709;52.396;16.796;2023-02-12T03:56:19;5;3;2
44045;PMS7003;29709;52.396;16.796;2023-02-12T03:59:26;3;1;1
44045;PMS7003;29709;52.396;16.796;2023-02-12T04:02:30;2;1;0
44045;PMS7003;29709;52.396;16.796;2023-02-12T04:05:34;1;1;1
44045;PMS7003;29709;52.396;16.796;2023-02-12T04:08:38;2;0;0
44045;PMS7003;29709;52.396;16.796;2023-02-12T04:28:09;4;3;2
44045;PMS7003;29709;52.396;16.796;2023-02-12T04:37:49;2;1;1
44045;PMS7003;29709;52.396;16.796;2023-02-12T04:41:00;2;1;1
44045;PMS7003;29709;52.396;16.796;2023-02-12T04:47:22;15;12;8
44045;PMS7003;29709;52.396;16.796;2023-02-12T04:50:50;6;5;3
44045;PMS7003;29709;52.396;16.796;2023-02-12T04:53:54;18;13;10
44045;PMS7003;29709;52.396;16.796;2023-02-12T04:56:57;15;11;8
44045;PMS7003;29709;52.396;16.796;2023-02-12T05:00:00;14;11;8
44045;PMS7003;29709;52.396;16.796;2023-02-12T05:03:04;9;8;6
44045;PMS7003;29709;52.396;16.796;2023-02-12T05:06:07;4;3;2
44045;PMS7003;29709;52.396;16.796;2023-02-12T05:09:12;1;1;1
44045;PMS7003;29709;52.396;16.796;2023-02-12T05:12:20;3;2;2
44045;PMS7003;29709;52.396;16.796;2023-02-12T05:15:23;2;2;1
44045;PMS7003;29709;52.396;16.796;2023-02-12T05:18:53;2;1;1
44045;PMS7003;29709;52.396;16.796;2023-02-12T05:21:56;3;1;1
44045;PMS7003;29709;52.396;16.796;2023-02-12T05:24:59;1;1;0
44045;PMS7003;29709;52.396;16.796;2023-02-12T05:28:02;4;3;2
44045;PMS7003;29709;52.396;16.796;2023-02-12T05:31:07;3;1;1
44045;PMS7003;29709;52.396;16.796;2023-02-12T05:34:11;2;2;1
44045;PMS7003;29709;52.396;16.796;2023-02-12T05:37:15;6;4;2
44045;PMS7003;29709;52.396;16.796;2023-02-12T05:40:18;3;2;1
44045;PMS7003;29709;52.396;16.796;2023-02-12T05:43:21;2;2;1
44045;PMS7003;29709;52.396;16.796;2023-02-12T05:46:24;2;2;1
44045;PMS7003;29709;52.396;16.796;2023-02-12T05:49:53;3;2;1
44045;PMS7003;29709;52.396;16.796;2023-02-12T05:52:58;2;2;1
44045;PMS7003;29709;52.396;16.796;2023-02-12T05:59:20;1;1;1
44045;PMS7003;29709;52.396;16.796;2023-02-12T06:02:24;2;2;2
44045;PMS7003;29709;52.396;16.796;2023-02-12T06:05:30;5;2;2
44045;PMS7003;29709;52.396;16.796;2023-02-12T06:08:33;3;2;1
44045;PMS7003;29709;52.396;16.796;2023-02-12T06:12:03;3;2;2
44045;PMS7003;29709;52.396;16.796;2023-02-12T06:15:07;2;2;1
44045;PMS7003;29709;52.396;16.796;2023-02-12T06:18:10;3;3;2
44045;PMS7003;29709;52.396;16.796;2023-02-12T06:21:14;3;2;2
44045;PMS7003;29709;52.396;16.796;2023-02-12T06:24:18;6;4;3
44045;PMS7003;29709;52.396;16.796;2023-02-12T06:27:21;6;5;4
44045;PMS7003;29709;52.396;16.796;2023-02-12T06:30:24;4;3;2
44045;PMS7003;29709;52.396;16.796;2023-02-12T06:33:28;6;2;2
44045;PMS7003;29709;52.396;16.796;2023-02-12T06:36:32;7;5;3
44045;PMS7003;29709;52.396;16.796;2023-02-12T06:39:35;4;3;2
44045;PMS7003;29709;52.396;16.796;2023-02-12T06:43:04;5;3;2
44045;PMS7003;29709;52.396;16.796;2023-02-12T06:46:07;5;4;3
44045;PMS7003;29709;52.396;16.796;2023-02-12T06:49:11;3;3;2
44045;PMS7003;29709;52.396;16.796;2023-02-12T06:52:16;7;6;3
44045;PMS7003;29709;52.396;16.796;2023-02-12T06:55:19;4;3;2
44045;PMS7003;29709;52.396;16.796;2023-02-12T06:58:22;2;1;0
44045;PMS7003;29709;52.396;16.796;2023-02-12T07:01:26;4;3;2
44045;PMS7003;29709;52.396;16.796;2023-02-12T07:04:31;3;3;2
44045;PMS7003;29709;52.396;16.796;2023-02-12T07:07:34;3;2;1
44045;PMS7003;29709;52.396;16.796;2023-02-12T07:10:37;3;2;2
44045;PMS7003;29709;52.396;16.796;2023-02-12T07:14:06;5;5;2
44045;PMS7003;29709;52.396;16.796;2023-02-12T07:17:09;4;4;3
44045;PMS7003;29709;52.396;16.796;2023-02-12T07:20:12;3;3;2
44045;PMS7003;29709;52.396;16.796;2023-02-12T07:23:15;2;2;2
44045;PMS7003;29709;52.396;16.796;2023-02-12T07:26:19;4;4;3
44045;PMS7003;29709;52.396;16.796;2023-02-12T07:29:23;5;5;4
44045;PMS7003;29709;52.396;16.796;2023-02-12T07:32:26;7;6;5
44045;PMS7003;29709;52.396;16.796;2023-02-12T07:35:29;7;6;5
44045;PMS7003;29709;52.396;16.796;2023-02-12T07:38:32;9;6;5
44045;PMS7003;29709;52.396;16.796;2023-02-12T07:42:09;10;8;6
44045;PMS7003;29709;52.396;16.796;2023-02-12T07:45:16;8;7;6
44045;PMS7003;29709;52.396;16.796;2023-02-12T07:48:19;7;5;2
44045;PMS7003;29709;52.396;16.796;2023-02-12T07:51:22;9;9;7
44045;PMS7003;29709;52.396;16.796;2023-02-12T07:54:26;6;6;4
44045;PMS7003;29709;52.396;16.796;2023-02-12T07:57:29;10;8;7
44045;PMS7003;29709;52.396;16.796;2023-02-12T08:00:32;11;9;7
44045;PMS7003;29709;52.396;16.796;2023-02-12T08:03:35;12;11;8
44045;PMS7003;29709;52.396;16.796;2023-02-12T08:06:40;12;10;8
44045;PMS7003;29709;52.396;16.796;2023-02-12T08:10:12;11;7;5
44045;PMS7003;29709;52.396;16.796;2023-02-12T08:13:16;12;8;6
44045;PMS7003;29709;52.396;16.796;2023-02-12T08:16:20;12;8;7
44045;PMS7003;29709;52.396;16.796;2023-02-12T08:19:24;12;10;8
44045;PMS7003;29709;52.396;16.796;2023-02-12T08:22:27;11;8;5
44045;PMS7003;29709;52.396;16.796;2023-02-12T08:25:30;10;8;6
44045;PMS7003;29709;52.396;16.796;2023-02-12T08:28:34;9;8;6
44045;PMS7003;29709;52.396;16.796;2023-02-12T08:31:40;12;8;6
44045;PMS7003;29709;52.396;16.796;2023-02-12T08:34:45;9;8;5
44045;PMS7003;29709;52.396;16.796;2023-02-12T08:38:15;9;8;7
44045;PMS7003;29709;52.396;16.796;2023-02-12T08:41:19;12;9;7
44045;PMS7003;29709;52.396;16.796;2023-02-12T08:44:26;12;10;7
44045;PMS7003;29709;52.396;16.796;2023-02-12T08:47:30;9;8;6
44045;PMS7003;29709;52.396;16.796;2023-02-12T08:50:35;9;8;6
44045;PMS7003;29709;52.396;16.796;2023-02-12T08:53:39;8;8;6
44045;PMS7003;29709;52.396;16.796;2023-02-12T08:56:44;12;9;8
44045;PMS7003;29709;52.396;16.796;2023-02-12T08:59:47;13;11;8
44045;PMS7003;29709;52.396;16.796;2023-02-12T09:02:51;5;2;2
44045;PMS7003;29709;52.396;16.796;2023-02-12T09:06:20;9;7;4
44045;PMS7003;29709;52.396;16.796;2023-02-12T09:09:25;10;7;6
44045;PMS7003;29709;52.396;16.796;2023-02-12T09:12:28;9;6;5
44045;PMS7003;29709;52.396;16.796;2023-02-12T09:15:35;8;8;6
44045;PMS7003;29709;52.396;16.796;2023-02-12T09:18:40;12;10;8
44045;PMS7003;29709;52.396;16.796;2023-02-12T09:21:43;14;12;8
44045;PMS7003;29709;52.396;16.796;2023-02-12T09:24:46;13;10;7
44045;PMS7003;29709;52.396;16.796;2023-02-12T09:27:50;15;12;8
44045;PMS7003;29709;52.396;16.796;2023-02-12T09:30:53;13;10;8
44045;PMS7003;29709;52.396;16.796;2023-02-12T09:34:22;15;14;10
44045;PMS7003;29709;52.396;16.796;2023-02-12T09:37:25;11;10;8
44045;PMS7003;29709;52.396;16.796;2023-02-12T09:47:02;10;6;5
44045;PMS7003;29709;52.396;16.796;2023-02-12T09:53:59;14;13;7
44045;PMS7003;29709;52.396;16.796;2023-02-12T09:57:17;18;15;11
44045;PMS7003;29709;52.396;16.796;2023-02-12T10:00:24;9;9;6
44045;PMS7003;29709;52.396;16.796;2023-02-12T10:03:57;15;11;8
44045;PMS7003;29709;52.396;16.796;2023-02-12T10:07:06;10;8;6
44045;PMS7003;29709;52.396;16.796;2023-02-12T10:13:38;13;9;6
44045;PMS7003;29709;52.396;16.796;2023-02-12T10:16:56;18;15;10
44045;PMS7003;29709;52.396;16.796;2023-02-12T10:23:26;6;6;4
44045;PMS7003;29709;52.396;16.796;2023-02-12T10:26:41;11;6;4
44045;PMS7003;29709;52.396;16.796;2023-02-12T10:29:50;11;8;7
44045;PMS7003;29709;52.396;16.796;2023-02-12T10:33:23;15;15;10
44045;PMS7003;29709;52.396;16.796;2023-02-12T10:39:47;16;13;9
44045;PMS7003;29709;52.396;16.796;2023-02-12T10:42:56;16;13;10
44045;PMS7003;29709;52.396;16.796;2023-02-12T10:46:01;17;14;10
44045;PMS7003;29709;52.396;16.796;2023-02-12T10:49:04;8;6;4
44045;PMS7003;29709;52.396;16.796;2023-02-12T10:52:38;4;4;3
44045;PMS7003;29709;52.396;16.796;2023-02-12T10:55:46;9;8;5
44045;PMS7003;29709;52.396;16.796;2023-02-12T10:58:52;7;6;3
44045;PMS7003;29709;52.396;16.796;2023-02-12T11:01:57;7;5;2
44045;PMS7003;29709;52.396;16.796;2023-02-12T11:05:19;6;6;3
44045;PMS7003;29709;52.396;16.796;2023-02-12T11:11:29;2;2;2
44045;PMS7003;29709;52.396;16.796;2023-02-12T11:14:38;2;2;1
44045;PMS7003;29709;52.396;16.796;2023-02-12T11:18:07;5;3;2
44045;PMS7003;29709;52.396;16.796;2023-02-12T11:21:15;3;3;2
44045;PMS7003;29709;52.396;16.796;2023-02-12T11:24:29;2;1;1
44045;PMS7003;29709;52.396;16.796;2023-02-12T11:27:34;3;2;1
44045;PMS7003;29709;52.396;16.796;2023-02-12T11:30:47;3;1;0
44045;PMS7003;29709;52.396;16.796;2023-02-12T11:37:13;5;2;2
44045;PMS7003;29709;52.396;16.796;2023-02-12T11:40:24;3;3;2
44045;PMS7003;29709;52.396;16.796;2023-02-12T11:43:30;3;3;2
44045;PMS7003;29709;52.396;16.796;2023-02-12T11:46:44;4;2;2
44045;PMS7003;29709;52.396;16.796;2023-02-12T11:53:16;3;1;0
44045;PMS7003;29709;52.396;16.796;2023-02-12T11:56:24;5;3;2
44045;PMS7003;29709;52.396;16.796;2023-02-12T11:59:35;2;1;1
44045;PMS7003;29709;52.396;16.796;2023-02-12T12:02:44;4;3;2
44045;PMS7003;29709;52.396;16.796;2023-02-12T12:05:54;3;3;2
44045;PMS7003;29709;52.396;16.796;2023-02-12T12:12:24;2;2;1
44045;PMS7003;29709;52.396;16.796;2023-02-12T12:15:47;3;3;2
44045;PMS7003;29709;52.396;16.796;2023-02-12T12:19:05;3;2;1
44045;PMS7003;29709;52.396;16.796;2023-02-12T12:25:44;4;2;2
44045;PMS7003;29709;52.396;16.796;2023-02-12T12:28:52;4;3;2
44045;PMS7003;29709;52.396;16.796;2023-02-12T12:32:02;5;3;2
44045;PMS7003;29709;52.396;16.796;2023-02-12T12:35:09;3;2;2
44045;PMS7003;29709;52.396;16.796;2023-02-12T12:41:42;2;2;1
44045;PMS7003;29709;52.396;16.796;2023-02-12T12:48:16;3;3;2
44045;PMS7003;29709;52.396;16.796;2023-02-12T13:14:12;6;5;4
44045;PMS7003;29709;52.396;16.796;2023-02-12T13:20:44;6;4;3
44045;PMS7003;29709;52.396;16.796;2023-02-12T13:23:58;6;5;4
44045;PMS7003;29709;52.396;16.796;2023-02-12T13:30:24;7;4;2
44045;PMS7003;29709;52.396;16.796;2023-02-12T13:33:40;4;4;3
44045;PMS7003;29709;52.396;16.796;2023-02-12T13:36:47;8;6;4
44045;PMS7003;29709;52.396;16.796;2023-02-12T13:40:18;5;5;4
44045;PMS7003;29709;52.396;16.796;2023-02-12T13:57:52;10;6;3
44045;PMS7003;29709;52.396;16.796;2023-02-12T14:01:00;10;8;6
44045;PMS7003;29709;52.396;16.796;2023-02-12T14:10:43;8;7;6
44045;PMS7003;29709;52.396;16.796;2023-02-12T14:14:00;9;9;6
44045;PMS7003;29709;52.396;16.796;2023-02-12T14:20:24;9;8;6
44045;PMS7003;29709;52.396;16.796;2023-02-12T14:23:30;9;8;5
44045;PMS7003;29709;52.396;16.796;2023-02-12T14:26:59;11;8;6
44045;PMS7003;29709;52.396;16.796;2023-02-12T14:33:20;9;8;5
44045;PMS7003;29709;52.396;16.796;2023-02-12T14:39:45;6;4;3
44045;PMS7003;29709;52.396;16.796;2023-02-12T14:49:44;9;6;4
44045;PMS7003;29709;52.396;16.796;2023-02-12T14:52:57;5;3;2
44045;PMS7003;29709;52.396;16.796;2023-02-12T14:56:06;3;3;2
44045;PMS7003;29709;52.396;16.796;2023-02-12T14:59:14;5;3;2
44045;PMS7003;29709;52.396;16.796;2023-02-12T15:06:19;4;4;2
44045;PMS7003;29709;52.396;16.796;2023-02-12T15:08:49;5;3;2
44045;PMS7003;29709;52.396;16.796;2023-02-12T15:12:00;3;2;2
44045;PMS7003;29709;52.396;16.796;2023-02-12T15:21:42;3;3;2
44045;PMS7003;29709;52.396;16.796;2023-02-12T15:24:47;3;3;2
44045;PMS7003;29709;52.396;16.796;2023-02-12T15:28:20;2;2;1
44045;PMS7003;29709;52.396;16.796;2023-02-12T15:31:36;2;2;2
44045;PMS7003;29709;52.396;16.796;2023-02-12T15:34:39;3;3;2
44045;PMS7003;29709;52.396;16.796;2023-02-12T15:37:46;7;6;4
44045;PMS7003;29709;52.396;16.796;2023-02-12T15:40:55;7;6;5
44045;PMS7003;29709;52.396;16.796;2023-02-12T15:44:01;8;7;5
44045;PMS7003;29709;52.396;16.796;2023-02-12T15:47:13;3;2;2
44045;PMS7003;29709;52.396;16.796;2023-02-12T15:50:20;11;9;7
44045;PMS7003;29709;52.396;16.796;2023-02-12T15:53:49;0;0;0
44045;PMS7003;29709;52.396;16.796;2023-02-12T15:56:53;5;5;4
44045;PMS7003;29709;52.396;16.796;2023-02-12T16:00:00;7;5;4
44045;PMS7003;29709;52.396;16.796;2023-02-12T16:06:26;4;3;3
44045;PMS7003;29709;52.396;16.796;2023-02-12T16:09:35;6;6;4
44045;PMS7003;29709;52.396;16.796;2023-02-12T16:13:04;8;4;3
44045;PMS7003;29709;52.396;16.796;2023-02-12T16:19:32;13;11;8
44045;PMS7003;29709;52.396;16.796;2023-02-12T16:22:38;17;13;9
44045;PMS7003;29709;52.396;16.796;2023-02-12T16:25:43;12;9;8
44045;PMS7003;29709;52.396;16.796;2023-02-12T16:28:56;13;9;7
44045;PMS7003;29709;52.396;16.796;2023-02-12T16:35:36;12;10;7
44045;PMS7003;29709;52.396;16.796;2023-02-12T16:38:43;18;16;11
44045;PMS7003;29709;52.396;16.796;2023-02-12T16:41:57;16;13;9
44045;PMS7003;29709;52.396;16.796;2023-02-12T16:44:58;17;15;11
44045;PMS7003;29709;52.396;16.796;2023-02-12T16:51:23;11;10;8
44045;PMS7003;29709;52.396;16.796;2023-02-12T16:54:29;7;5;3
44045;PMS7003;29709;52.396;16.796;2023-02-12T16:57:34;10;8;6
44045;PMS7003;29709;52.396;16.796;2023-02-12T17:01:03;8;8;5
44045;PMS7003;29709;52.396;16.796;2023-02-12T17:04:07;11;9;6
44045;PMS7003;29709;52.396;16.796;2023-02-12T17:07:19;8;5;3
44045;PMS7003;29709;52.396;16.796;2023-02-12T17:10:24;13;11;9
44045;PMS7003;29709;52.396;16.796;2023-02-12T17:13:27;14;12;8
44045;PMS7003;29709;52.396;16.796;2023-02-12T17:16:31;24;18;15
44045;PMS7003;29709;52.396;16.796;2023-02-12T17:19:34;10;10;7
44045;PMS7003;29709;52.396;16.796;2023-02-12T17:22:37;10;8;6
44045;PMS7003;29709;52.396;16.796;2023-02-12T17:26:06;9;6;5
44045;PMS7003;29709;52.396;16.796;2023-02-12T17:29:13;10;8;6
44045;PMS7003;29709;52.396;16.796;2023-02-12T17:32:16;8;5;3
44045;PMS7003;29709;52.396;16.796;2023-02-12T17:35:20;14;9;6
44045;PMS7003;29709;52.396;16.796;2023-02-12T17:38:23;10;10;8
44045;PMS7003;29709;52.396;16.796;2023-02-12T17:41:27;16;10;7
44045;PMS7003;29709;52.396;16.796;2023-02-12T17:44:30;11;8;6
44045;PMS7003;29709;52.396;16.796;2023-02-12T17:47:33;10;7;5
44045;PMS7003;29709;52.396;16.796;2023-02-12T17:50:41;14;12;9
44045;PMS7003;29709;52.396;16.796;2023-02-12T17:54:10;13;10;7
44045;PMS7003;29709;52.396;16.796;2023-02-12T17:57:17;10;9;7
44045;PMS7003;29709;52.396;16.796;2023-02-12T18:00:20;15;12;8
44045;PMS7003;29709;52.396;16.796;2023-02-12T18:03:24;10;10;5
44045;PMS7003;29709;52.396;16.796;2023-02-12T18:06:28;16;14;9
44045;PMS7003;29709;52.396;16.796;2023-02-12T18:09:34;17;16;11
44045;PMS7003;29709;52.396;16.796;2023-02-12T18:12:40;19;12;10
44045;PMS7003;29709;52.396;16.796;2023-02-12T18:15:44;10;8;5
44045;PMS7003;29709;52.396;16.796;2023-02-12T18:19:15;13;12;8
44045;PMS7003;29709;52.396;16.796;2023-02-12T18:22:19;14;13;10
44045;PMS7003;29709;52.396;16.796;2023-02-12T18:25:23;12;11;7
44045;PMS7003;29709;52.396;16.796;2023-02-12T18:28:26;10;9;6
44045;PMS7003;29709;52.396;16.796;2023-02-12T18:31:29;15;10;8
44045;PMS7003;29709;52.396;16.796;2023-02-12T18:34:33;8;7;4
44045;PMS7003;29709;52.396;16.796;2023-02-12T18:37:36;13;12;8
44045;PMS7003;29709;52.396;16.796;2023-02-12T18:40:42;19;15;12
44045;PMS7003;29709;52.396;16.796;2023-02-12T18:43:46;20;16;11
44045;PMS7003;29709;52.396;16.796;2023-02-12T18:47:18;14;11;7
44045;PMS7003;29709;52.396;16.796;2023-02-12T18:50:21;13;11;8
44045;PMS7003;29709;52.396;16.796;2023-02-12T18:53:25;17;15;11
44045;PMS7003;29709;52.396;16.796;2023-02-12T18:56:29;15;13;10
44045;PMS7003;29709;52.396;16.796;2023-02-12T18:59:35;21;18;14
44045;PMS7003;29709;52.396;16.796;2023-02-12T19:02:38;12;8;6
44045;PMS7003;29709;52.396;16.796;2023-02-12T19:05:41;15;12;9
44045;PMS7003;29709;52.396;16.796;2023-02-12T19:08:45;16;13;10
44045;PMS7003;29709;52.396;16.796;2023-02-12T19:11:49;12;10;8
44045;PMS7003;29709;52.396;16.796;2023-02-12T19:15:20;13;12;10
44045;PMS7003;29709;52.396;16.796;2023-02-12T19:18:24;8;8;6
44045;PMS7003;29709;52.396;16.796;2023-02-12T19:21:28;14;13;9
44045;PMS7003;29709;52.396;16.796;2023-02-12T19:24:32;16;12;10
44045;PMS7003;29709;52.396;16.796;2023-02-12T19:27:35;14;13;8
44045;PMS7003;29709;52.396;16.796;2023-02-12T19:30:39;10;8;6
44045;PMS7003;29709;52.396;16.796;2023-02-12T19:33:43;12;11;8
44045;PMS7003;29709;52.396;16.796;2023-02-12T19:36:48;14;12;9
44045;PMS7003;29709;52.396;16.796;2023-02-12T19:39:51;19;17;12
44045;PMS7003;29709;52.396;16.796;2023-02-12T19:43:23;17;14;9
44045;PMS7003;29709;52.396;16.796;2023-02-12T19:46:27;19;18;12
44045;PMS7003;29709;52.396;16.796;2023-02-12T19:49:33;18;16;11
44045;PMS7003;29709;52.396;16.796;2023-02-12T19:52:37;9;7;4
44045;PMS7003;29709;52.396;16.796;2023-02-12T19:55:40;13;11;8
44045;PMS7003;29709;52.396;16.796;2023-02-12T19:58:43;14;11;9
44045;PMS7003;29709;52.396;16.796;2023-02-12T20:01:47;18;16;11
44045;PMS7003;29709;52.396;16.796;2023-02-12T20:04:51;18;16;12
44045;PMS7003;29709;52.396;16.796;2023-02-12T20:07:54;14;12;8
44045;PMS7003;29709;52.396;16.796;2023-02-12T20:10:57;16;13;11
44045;PMS7003;29709;52.396;16.796;2023-02-12T20:14:26;16;11;8
44045;PMS7003;29709;52.396;16.796;2023-02-12T20:17:30;14;13;8
44045;PMS7003;29709;52.396;16.796;2023-02-12T20:20:33;22;18;12
44045;PMS7003;29709;52.396;16.796;2023-02-12T20:23:37;24;22;15
44045;PMS7003;29709;52.396;16.796;2023-02-12T20:26:44;21;19;13
44045;PMS7003;29709;52.396;16.796;2023-02-12T20:29:53;16;14;11
44045;PMS7003;29709;52.396;16.796;2023-02-12T20:32:56;15;14;9
44045;PMS7003;29709;52.396;16.796;2023-02-12T20:35:59;17;13;9
44045;PMS7003;29709;52.396;16.796;2023-02-12T20:39:03;16;15;10
44045;PMS7003;29709;52.396;16.796;2023-02-12T20:42:36;15;13;11
44045;PMS7003;29709;52.396;16.796;2023-02-12T20:45:40;18;13;9
44045;PMS7003;29709;52.396;16.796;2023-02-12T20:48:44;15;12;10
44045;PMS7003;29709;52.396;16.796;2023-02-12T20:51:47;14;11;8
44045;PMS7003;29709;52.396;16.796;2023-02-12T20:54:51;11;9;8
44045;PMS7003;29709;52.396;16.796;2023-02-12T20:57:55;11;11;8
44045;PMS7003;29709;52.396;16.796;2023-02-12T21:01:02;13;11;7
44045;PMS7003;29709;52.396;16.796;2023-02-12T21:04:13;11;10;6
44045;PMS7003;29709;52.396;16.796;2023-02-12T21:07:43;14;9;7
44045;PMS7003;29709;52.396;16.796;2023-02-12T21:10:47;7;7;5
44045;PMS7003;29709;52.396;16.796;2023-02-12T21:13:51;9;8;5
44045;PMS7003;29709;52.396;16.796;2023-02-12T21:16:56;4;2;1
44045;PMS7003;29709;52.396;16.796;2023-02-12T21:19:59;10;9;6
44045;PMS7003;29709;52.396;16.796;2023-02-12T21:23:02;3;2;2
44045;PMS7003;29709;52.396;16.796;2023-02-12T21:26:07;8;7;5
44045;PMS7003;29709;52.396;16.796;2023-02-12T21:29:12;7;7;5
44045;PMS7003;29709;52.396;16.796;2023-02-12T21:32:16;8;7;5
44045;PMS7003;29709;52.396;16.796;2023-02-12T21:35:46;7;5;4
44045;PMS7003;29709;52.396;16.796;2023-02-12T21:38:52;11;9;7
44045;PMS7003;29709;52.396;16.796;2023-02-12T21:42:00;8;7;4
44045;PMS7003;29709;52.396;16.796;2023-02-12T21:45:05;9;8;5
44045;PMS7003;29709;52.396;16.796;2023-02-12T21:48:08;9;6;5
44045;PMS7003;29709;52.396;16.796;2023-02-12T21:54:22;4;3;2
44045;PMS7003;29709;52.396;16.796;2023-02-12T21:57:30;8;7;5
44045;PMS7003;29709;52.396;16.796;2023-02-12T22:01:25;5;5;3
44045;PMS7003;29709;52.396;16.796;2023-02-12T22:04:16;8;7;4
44045;PMS7003;29709;52.396;16.796;2023-02-12T22:07:21;6;5;4
44045;PMS7003;29709;52.396;16.796;2023-02-12T22:10:24;5;4;3
44045;PMS7003;29709;52.396;16.796;2023-02-12T22:13:28;6;6;5
44045;PMS7003;29709;52.396;16.796;2023-02-12T22:16:33;7;5;4
44045;PMS7003;29709;52.396;16.796;2023-02-12T22:19:37;6;6;3
44045;PMS7003;29709;52.396;16.796;2023-02-12T22:23:07;4;4;3
44045;PMS7003;29709;52.396;16.796;2023-02-12T22:26:12;3;2;0
44045;PMS7003;29709;52.396;16.796;2023-02-12T22:29:17;7;6;4
44045;PMS7003;29709;52.396;16.796;2023-02-12T22:32:20;5;4;2
44045;PMS7003;29709;52.396;16.796;2023-02-12T22:35:23;4;3;2
44045;PMS7003;29709;52.396;16.796;2023-02-12T22:38:27;4;4;3
44045;PMS7003;29709;52.396;16.796;2023-02-12T22:41:30;6;5;4
44045;PMS7003;29709;52.396;16.796;2023-02-12T22:44:34;6;4;3
44045;PMS7003;29709;52.396;16.796;2023-02-12T22:47:37;5;4;3
44045;PMS7003;29709;52.396;16.796;2023-02-12T22:50:43;3;3;2
44045;PMS7003;29709;52.396;16.796;2023-02-12T22:54:12;4;3;2
44045;PMS7003;29709;52.396;16.796;2023-02-12T22:57:17;6;3;2
44045;PMS7003;29709;52.396;16.796;2023-02-12T23:00:20;4;4;3
44045;PMS7003;29709;52.396;16.796;2023-02-12T23:03:23;3;3;2
44045;PMS7003;29709;52.396;16.796;2023-02-12T23:06:28;4;3;2
44045;PMS7003;29709;52.396;16.796;2023-02-12T23:09:32;6;4;2
44045;PMS7003;29709;52.396;16.796;2023-02-12T23:12:35;4;3;3
44045;PMS7003;29709;52.396;16.796;2023-02-12T23:15:38;5;3;3
44045;PMS7003;29709;52.396;16.796;2023-02-12T23:18:42;2;2;2
44045;PMS7003;29709;52.396;16.796;2023-02-12T23:21:45;4;3;2
44045;PMS7003;29709;52.396;16.796;2023-02-12T23:25:13;1;1;0
44045;PMS7003;29709;52.396;16.796;2023-02-12T23:28:17;4;4;2
44045;PMS7003;29709;52.396;16.796;2023-02-12T23:31:20;3;2;2
44045;PMS7003;29709;52.396;16.796;2023-02-12T23:34:24;3;2;2
44045;PMS7003;29709;52.396;16.796;2023-02-12T23:37:27;2;2;1
44045;PMS7003;29709;52.396;16.796;2023-02-12T23:40:31;4;2;2
44045;PMS7003;29709;52.396;16.796;2023-02-12T23:43:35;3;3;2
44045;PMS7003;29709;52.396;16.796;2023-02-12T23:46:38;3;2;2
44045;PMS7003;29709;52.396;16.796;2023-02-12T23:49:41;3;3;3
44045;PMS7003;29709;52.396;16.796;2023-02-12T23:52:44;3;3;2